createdAt,value
2018-07-05T00:02:11.608Z,1.17
2018-07-05T00:04:52.070Z,1.30
2018-07-05T00:07:32.381Z,1.57
2018-07-05T00:10:12.809Z,1.10
2018-07-05T00:12:53.232Z,1.10
2018-07-05T00:15:33.530Z,1.13
2018-07-05T00:18:13.867Z,1.07
2018-07-05T00:20:54.088Z,1.10
2018-07-05T00:23:34.302Z,1.07
2018-07-05T00:26:14.652Z,1.40
2018-07-05T00:28:54.924Z,1.23
2018-07-05T00:31:35.270Z,1.10
2018-07-05T00:34:15.535Z,0.90
2018-07-05T00:36:55.808Z,1.20
2018-07-05T00:39:36.120Z,1.00
2018-07-05T00:42:16.423Z,1.30
2018-07-05T00:44:56.684Z,0.93
2018-07-05T00:47:36.975Z,1.10
2018-07-05T00:50:17.282Z,1.40
2018-07-05T00:52:57.656Z,1.40
2018-07-05T00:55:38.047Z,1.20
2018-07-05T00:58:18.400Z,1.13
2018-07-05T01:00:58.668Z,1.27
2018-07-05T01:03:38.891Z,1.20
2018-07-05T01:06:19.178Z,1.13
2018-07-05T01:08:59.545Z,1.30
2018-07-05T01:11:39.735Z,1.20
2018-07-05T01:14:20.150Z,1.03
2018-07-05T01:17:00.396Z,1.20
2018-07-05T01:19:40.818Z,1.20
2018-07-05T01:22:21.035Z,1.27
2018-07-05T01:25:01.432Z,1.20
2018-07-05T01:27:41.756Z,1.20
2018-07-05T01:30:22.040Z,1.00
2018-07-05T01:33:02.457Z,1.33
2018-07-05T01:35:42.775Z,1.33
2018-07-05T01:38:23.085Z,1.37
2018-07-05T01:41:03.378Z,1.20
2018-07-05T01:43:43.708Z,1.30
2018-07-05T01:46:24.043Z,1.20
2018-07-05T01:49:04.303Z,1.60
2018-07-05T01:51:44.710Z,1.20
2018-07-05T01:54:25.059Z,1.43
2018-07-05T01:57:05.483Z,1.50
2018-07-05T01:59:45.884Z,1.27
2018-07-05T02:02:26.193Z,1.30
2018-07-05T02:05:06.607Z,1.10
2018-07-05T02:07:46.899Z,1.27
2018-07-05T02:10:27.165Z,1.20
2018-07-05T02:13:07.442Z,1.10
2018-07-05T02:15:47.768Z,1.40
2018-07-05T02:18:27.943Z,1.20
2018-07-05T02:21:08.254Z,1.40
2018-07-05T02:23:48.656Z,1.20
2018-07-05T02:26:28.912Z,1.20
2018-07-05T02:29:09.103Z,1.40
2018-07-05T02:31:49.444Z,1.20
2018-07-05T02:34:29.849Z,1.70
2018-07-05T02:37:14.458Z,1.40
2018-07-05T02:39:54.972Z,1.23
2018-07-05T02:42:35.227Z,1.30
2018-07-05T02:45:15.728Z,1.47
2018-07-05T02:47:55.940Z,1.33
2018-07-05T02:50:36.442Z,1.17
2018-07-05T02:53:16.815Z,1.07
2018-07-05T02:55:57.136Z,1.40
2018-07-05T02:58:37.277Z,1.40
2018-07-05T03:01:17.568Z,1.33
2018-07-05T03:03:57.872Z,1.50
2018-07-05T03:06:38.283Z,1.40
2018-07-05T03:09:18.522Z,1.40
2018-07-05T03:11:58.844Z,1.30
2018-07-05T03:14:39.206Z,1.20
2018-07-05T03:17:19.599Z,1.57
2018-07-05T03:19:59.737Z,1.47
2018-07-05T03:22:40.018Z,1.70
2018-07-05T03:25:20.413Z,1.53
2018-07-05T03:28:00.706Z,1.40
2018-07-05T03:30:40.947Z,1.47
2018-07-05T03:33:21.256Z,1.37
2018-07-05T03:36:01.777Z,1.60
2018-07-05T03:38:42.000Z,1.47
2018-07-05T03:41:22.319Z,1.60
2018-07-05T03:44:02.615Z,1.27
2018-07-05T03:46:42.900Z,1.60
2018-07-05T03:49:23.189Z,1.57
2018-07-05T03:52:03.483Z,1.50
2018-07-05T03:54:43.745Z,1.73
2018-07-05T03:57:24.021Z,1.40
2018-07-05T04:00:04.335Z,1.97
2018-07-05T04:02:44.514Z,1.60
2018-07-05T04:05:24.782Z,1.30
2018-07-05T04:08:05.101Z,1.50
2018-07-05T04:10:45.316Z,1.50
2018-07-05T04:13:25.555Z,1.60
2018-07-05T04:16:05.894Z,1.40
2018-07-05T04:18:46.155Z,1.27
2018-07-05T04:21:26.596Z,1.57
2018-07-05T04:24:07.044Z,1.77
2018-07-05T04:26:47.489Z,1.60
2018-07-05T04:29:27.780Z,1.50
2018-07-05T04:32:07.919Z,1.47
2018-07-05T04:34:48.192Z,1.40
2018-07-05T04:37:28.387Z,1.50
2018-07-05T04:40:08.689Z,1.50
2018-07-05T04:42:48.975Z,1.53
2018-07-05T04:45:29.252Z,1.60
2018-07-05T04:48:09.483Z,1.47
2018-07-05T04:50:49.788Z,1.50
2018-07-05T04:53:30.222Z,1.60
2018-07-05T04:56:10.546Z,1.43
2018-07-05T04:58:50.805Z,1.60
2018-07-05T05:01:31.088Z,1.70
2018-07-05T05:04:11.460Z,1.63
2018-07-05T05:06:51.685Z,1.57
2018-07-05T05:09:31.974Z,1.43
2018-07-05T05:12:12.238Z,1.57
2018-07-05T05:14:52.615Z,1.70
2018-07-05T05:17:32.859Z,1.70
2018-07-05T05:20:13.366Z,1.53
2018-07-05T05:22:53.845Z,1.63
2018-07-05T05:25:34.132Z,1.70
2018-07-05T05:28:14.426Z,1.57
2018-07-05T05:30:54.582Z,1.40
2018-07-05T05:33:34.812Z,1.47
2018-07-05T05:36:15.108Z,1.40
2018-07-05T05:38:55.437Z,1.30
2018-07-05T05:41:35.651Z,1.60
2018-07-05T05:44:15.980Z,1.70
2018-07-05T05:46:56.175Z,1.70
2018-07-05T05:49:36.521Z,1.67
2018-07-05T05:52:16.898Z,1.60
2018-07-05T05:54:57.134Z,1.60
2018-07-05T08:43:03.192Z,1.70
2018-07-05T08:45:31.176Z,1.90
2018-07-05T08:47:59.130Z,1.57
2018-07-05T08:50:27.077Z,1.67
2018-07-05T08:52:55.596Z,1.70
2018-07-05T08:55:23.591Z,1.53
2018-07-05T09:58:26.557Z,1.40
2018-07-05T10:00:54.524Z,1.50
2018-07-05T10:03:23.103Z,1.30
2018-07-05T10:05:50.995Z,1.50
2018-07-05T10:08:19.393Z,1.40
2018-07-05T10:10:47.383Z,1.70
2018-07-05T10:30:10.262Z,1.30
2018-07-05T10:32:50.597Z,1.10
2018-07-05T10:35:24.663Z,1.53
2018-07-05T10:37:57.130Z,1.50
2018-07-05T10:40:31.207Z,1.50
2018-07-05T10:43:11.495Z,1.43
2018-07-05T10:45:51.852Z,1.20
2018-07-05T10:48:32.256Z,1.40
2018-07-05T10:51:12.604Z,1.57
2018-07-05T10:53:52.915Z,1.53
2018-07-05T10:56:39.385Z,1.40
2018-07-05T10:59:25.987Z,1.30
2018-07-05T11:02:12.503Z,1.53
2018-07-05T11:04:59.023Z,1.30
2018-07-05T11:07:45.495Z,1.40
2018-07-05T11:10:32.000Z,1.30
2018-07-05T11:16:53.763Z,1.20
2018-07-05T11:19:40.163Z,1.40
2018-07-05T11:22:26.718Z,1.40
2018-07-05T11:25:13.267Z,1.40
2018-07-05T11:27:59.754Z,1.50
2018-07-05T12:13:52.908Z,1.30
2018-07-05T12:16:39.387Z,1.33
2018-07-05T12:19:25.923Z,1.20
2018-07-05T12:22:12.562Z,1.30
2018-07-05T12:24:58.999Z,1.40
2018-07-05T12:27:45.778Z,1.40
2018-07-05T12:30:32.250Z,1.40
2018-07-05T12:33:18.835Z,1.10
2018-07-05T12:36:05.179Z,1.33
2018-07-05T12:38:51.713Z,1.30
2018-07-05T12:41:38.424Z,1.23
2018-07-05T13:42:18.376Z,0.80
2018-07-05T13:45:04.944Z,0.90
2018-07-05T13:47:51.617Z,1.10
2018-07-05T13:50:38.164Z,1.10
2018-07-05T13:53:24.782Z,0.80
2018-07-05T13:56:13.832Z,1.03
2018-07-05T14:45:34.581Z,1.67
2018-07-05T14:48:21.205Z,1.70
2018-07-05T14:51:07.665Z,2.07
2018-07-05T14:53:54.297Z,2.33
2018-07-05T14:56:40.800Z,1.80
2018-07-05T16:43:39.266Z,2.70
2018-07-05T18:41:32.549Z,4.50
2018-07-05T18:44:19.054Z,4.03
2018-07-05T21:03:22.535Z,2.13
2018-07-05T21:06:09.494Z,2.17
2018-07-05T21:08:56.098Z,2.17
2018-07-05T21:11:43.020Z,2.40
2018-07-05T21:14:29.985Z,1.93
2018-07-05T22:32:44.864Z,2.07
2018-07-05T22:35:31.457Z,2.20
2018-07-05T22:38:17.932Z,2.50
2018-07-05T22:41:04.624Z,2.17
2018-07-05T22:43:51.500Z,1.90
2018-07-05T22:46:38.376Z,1.90
2018-07-05T23:03:44.743Z,1.83
2018-07-05T23:06:31.319Z,1.77
2018-07-05T23:09:18.669Z,1.50
2018-07-05T23:12:05.344Z,1.90
2018-07-05T23:14:45.986Z,1.73
2018-07-05T23:35:28.416Z,1.70
2018-07-05T23:38:15.531Z,1.70
2018-07-05T23:41:02.294Z,1.70
2018-07-05T23:43:49.271Z,1.90
2018-07-05T23:46:36.755Z,1.77
